createdAt,value
2018-06-20T00:02:09.885Z,101548.00
2018-06-20T00:04:40.947Z,101547.00
2018-06-20T00:07:11.732Z,101542.00
2018-06-20T00:09:42.519Z,101541.00
2018-06-20T00:12:17.481Z,101537.00
2018-06-20T00:14:47.577Z,101536.00
2018-06-20T00:17:17.517Z,101525.00
2018-06-20T00:19:47.498Z,101517.00
2018-06-20T00:22:18.264Z,101518.00
2018-06-20T00:24:49.143Z,101514.00
2018-06-20T00:27:20.453Z,101512.00
2018-06-20T00:29:51.097Z,101511.00
2018-06-20T00:32:21.434Z,101510.00
2018-06-20T00:34:51.748Z,101507.00
2018-06-20T00:37:21.616Z,101511.00
2018-06-20T00:39:51.609Z,101511.00
2018-06-20T00:42:21.708Z,101512.00
2018-06-20T00:44:51.822Z,101512.00
2018-06-20T00:47:21.739Z,101509.00
2018-06-20T00:49:51.812Z,101515.00
2018-06-20T00:52:21.876Z,101507.00
2018-06-20T00:54:51.841Z,101517.00
2018-06-20T00:57:21.837Z,101507.00
2018-06-20T00:59:52.152Z,101506.00
2018-06-20T01:02:22.427Z,101503.00
2018-06-20T01:04:52.610Z,101500.00
2018-06-20T01:07:22.743Z,101502.00
2018-06-20T01:09:52.944Z,101502.00
2018-06-20T01:12:23.071Z,101502.00
2018-06-20T01:14:53.278Z,101494.00
2018-06-20T01:17:23.373Z,101497.00
2018-06-20T01:19:53.589Z,101496.00
2018-06-20T01:22:23.639Z,101495.00
2018-06-20T01:24:54.045Z,101490.00
2018-06-20T01:27:24.227Z,101490.00
2018-06-20T01:29:53.731Z,101493.00
2018-06-20T01:32:23.789Z,101493.00
2018-06-20T01:34:53.908Z,101491.00
2018-06-20T01:37:24.043Z,101491.00
2018-06-20T01:39:54.143Z,101492.00
2018-06-20T01:42:24.299Z,101491.00
2018-06-20T01:44:54.235Z,101495.00
2018-06-20T01:47:24.831Z,101494.00
2018-06-20T01:49:55.835Z,101498.00
2018-06-20T01:52:27.102Z,101492.00
2018-06-20T02:00:26.243Z,101487.00
2018-06-20T02:02:56.274Z,101487.00
2018-06-20T02:05:26.114Z,101487.00
2018-06-20T02:07:56.575Z,101484.00
2018-06-20T02:10:26.398Z,101482.00
2018-06-20T02:12:56.738Z,101483.00
2018-06-20T02:15:26.839Z,101484.00
2018-06-20T02:17:57.008Z,101479.00
2018-06-20T02:20:27.094Z,101479.00
2018-06-20T02:22:56.969Z,101477.00
2018-06-20T02:25:26.960Z,101477.00
2018-06-20T02:27:57.211Z,101476.00
2018-06-20T02:30:26.688Z,101475.00
2018-06-20T02:32:56.784Z,101470.00
2018-06-20T02:35:26.820Z,101474.00
2018-06-20T02:37:56.989Z,101465.00
2018-06-20T02:40:27.188Z,101459.00
2018-06-20T02:42:57.291Z,101457.00
2018-06-20T02:45:27.285Z,101460.00
2018-06-20T02:47:58.853Z,101452.00
2018-06-20T02:50:29.139Z,101445.00
2018-06-20T02:52:59.109Z,101453.00
2018-06-20T02:55:28.969Z,101449.00
2018-06-20T02:57:58.804Z,101449.00
2018-06-20T03:00:29.484Z,101450.00
2018-06-20T03:02:59.583Z,101455.00
2018-06-20T03:05:30.090Z,101451.00
2018-06-20T03:08:00.408Z,101445.00
2018-06-20T03:10:30.527Z,101444.00
2018-06-20T03:13:00.648Z,101441.00
2018-06-20T03:15:30.963Z,101438.00
2018-06-20T03:18:01.255Z,101434.00
2018-06-20T03:20:31.270Z,101431.00
2018-06-20T03:23:01.471Z,101434.00
2018-06-20T03:25:31.494Z,101432.00
2018-06-20T03:28:01.421Z,101428.00
2018-06-20T03:30:31.760Z,101430.00
2018-06-20T03:33:01.961Z,101434.00
2018-06-20T03:35:32.069Z,101428.00
2018-06-20T03:38:02.159Z,101429.00
2018-06-20T03:40:32.279Z,101432.00
2018-06-20T03:43:02.663Z,101430.00
2018-06-20T03:45:32.801Z,101436.00
2018-06-20T03:48:02.882Z,101444.00
2018-06-20T03:50:33.449Z,101442.00
2018-06-20T03:53:03.511Z,101430.00
2018-06-20T03:55:33.541Z,101438.00
2018-06-20T03:58:03.501Z,101435.00
2018-06-20T04:00:33.444Z,101430.00
2018-06-20T04:03:03.586Z,101427.00
2018-06-20T04:05:33.826Z,101424.00
2018-06-20T04:08:04.180Z,101425.00
2018-06-20T04:10:34.198Z,101427.00
2018-06-20T04:13:04.108Z,101422.00
2018-06-20T04:15:34.309Z,101428.00
2018-06-20T04:18:05.110Z,101428.00
2018-06-20T04:20:35.893Z,101434.00
2018-06-20T04:23:07.169Z,101436.00
2018-06-20T04:25:38.351Z,101430.00
2018-06-20T04:28:09.471Z,101429.00
2018-06-20T04:30:40.440Z,101429.00
2018-06-20T04:40:25.519Z,101426.00
2018-06-20T04:42:55.965Z,101424.00
2018-06-20T04:45:25.890Z,101426.00
2018-06-20T04:47:55.981Z,101426.00
2018-06-20T04:50:26.563Z,101423.00
2018-06-20T04:52:56.813Z,101423.00
2018-06-20T04:55:27.099Z,101417.00
2018-06-20T04:57:57.296Z,101421.00
2018-06-20T05:00:27.699Z,101416.00
2018-06-20T05:02:57.774Z,101410.00
2018-06-20T05:05:27.745Z,101407.00
2018-06-20T05:07:58.087Z,101404.00
2018-06-20T05:10:28.399Z,101402.00
2018-06-20T05:12:58.630Z,101408.00
2018-06-20T05:15:28.650Z,101406.00
2018-06-20T05:17:58.965Z,101406.00
2018-06-20T05:20:29.133Z,101405.00
2018-06-20T05:22:59.176Z,101409.00
2018-06-20T05:25:29.366Z,101406.00
2018-06-20T05:27:59.486Z,101409.00
2018-06-20T05:30:29.781Z,101401.00
2018-06-20T05:32:59.887Z,101400.00
2018-06-20T05:35:30.140Z,101402.00
2018-06-20T05:38:00.177Z,101400.00
2018-06-20T05:40:30.247Z,101400.00
2018-06-20T05:43:00.141Z,101403.00
2018-06-20T05:45:30.109Z,101398.00
2018-06-20T05:48:00.289Z,101397.00
2018-06-20T05:50:30.489Z,101401.00
2018-06-20T05:53:00.606Z,101397.00
2018-06-20T05:55:30.731Z,101401.00
2018-06-20T05:58:01.067Z,101399.00
2018-06-20T06:00:31.169Z,101407.00
2018-06-20T06:03:01.301Z,101400.00
2018-06-20T06:05:31.541Z,101399.00
2018-06-20T06:08:09.149Z,101400.00
2018-06-20T06:10:39.724Z,101398.00
2018-06-20T06:13:10.049Z,101397.00
2018-06-20T06:15:40.171Z,101392.00
2018-06-20T06:18:10.381Z,101397.00
2018-06-20T06:20:40.570Z,101393.00
2018-06-20T06:23:10.875Z,101390.00
2018-06-20T06:25:40.941Z,101389.00
2018-06-20T06:28:11.304Z,101391.00
2018-06-20T06:30:41.431Z,101398.00
2018-06-20T06:33:11.470Z,101405.00
2018-06-20T06:35:41.624Z,101410.00
2018-06-20T06:38:12.086Z,101404.00
2018-06-20T06:40:42.245Z,101401.00
2018-06-20T06:43:12.415Z,101405.00
2018-06-20T06:45:42.614Z,101410.00
2018-06-20T06:48:12.636Z,101404.00
2018-06-20T06:50:42.892Z,101406.00
2018-06-20T06:53:13.041Z,101400.00
2018-06-20T06:55:43.138Z,101403.00
2018-06-20T06:58:13.762Z,101395.00
2018-06-20T07:00:44.055Z,101397.00
2018-06-20T07:03:14.516Z,101397.00
2018-06-20T07:05:45.065Z,101401.00
2018-06-20T07:08:15.237Z,101400.00
2018-06-20T07:10:45.230Z,101405.00
2018-06-20T07:13:15.662Z,101402.00
2018-06-20T07:15:45.726Z,101402.00
2018-06-20T07:18:16.160Z,101400.00
2018-06-20T07:20:46.377Z,101403.00
2018-06-20T07:23:16.501Z,101398.00
2018-06-20T07:25:46.599Z,101405.00
2018-06-20T07:28:16.935Z,101405.00
2018-06-20T07:30:46.825Z,101407.00
2018-06-20T07:33:17.179Z,101410.00
2018-06-20T07:35:47.046Z,101406.00
2018-06-20T07:38:17.240Z,101402.00
2018-06-20T07:40:48.280Z,101402.00
2018-06-20T07:43:18.780Z,101401.00
2018-06-20T07:45:49.617Z,101400.00
2018-06-20T07:48:19.899Z,101400.00
2018-06-20T07:50:50.088Z,101394.00
2018-06-20T07:53:20.315Z,101398.00
2018-06-20T07:55:50.819Z,101393.00
2018-06-20T07:58:25.926Z,101389.00
2018-06-20T08:01:01.998Z,101392.00
2018-06-20T08:03:37.225Z,101387.00
2018-06-20T08:06:12.484Z,101384.00
2018-06-20T08:08:47.668Z,101380.00
2018-06-20T08:12:26.855Z,101374.00
2018-06-20T08:15:01.691Z,101369.00
2018-06-20T08:17:36.852Z,101371.00
2018-06-20T08:20:15.092Z,101372.00
2018-06-20T08:22:45.130Z,101373.00
2018-06-20T08:25:15.421Z,101381.00
2018-06-20T08:27:45.516Z,101374.00
2018-06-20T08:30:15.705Z,101368.00
2018-06-20T08:32:45.921Z,101371.00
2018-06-20T08:35:16.125Z,101370.00
2018-06-20T08:37:46.096Z,101373.00
2018-06-20T08:40:15.560Z,101373.00
2018-06-20T08:42:45.648Z,101373.00
2018-06-20T08:45:16.596Z,101376.00
2018-06-20T08:47:47.687Z,101372.00
2018-06-20T08:50:19.311Z,101371.00
2018-06-20T08:52:50.111Z,101360.00
2018-06-20T08:55:21.470Z,101359.00
2018-06-20T08:57:52.337Z,101356.00
2018-06-20T09:00:27.335Z,101352.00
2018-06-20T09:02:57.401Z,101347.00
2018-06-20T09:05:32.935Z,101344.00
2018-06-20T09:08:07.965Z,101347.00
2018-06-20T09:10:43.125Z,101347.00
2018-06-20T09:13:18.209Z,101336.00
2018-06-20T09:15:53.218Z,101337.00
2018-06-20T09:18:28.510Z,101330.00
2018-06-20T09:20:58.599Z,101328.00
2018-06-20T09:23:28.689Z,101330.00
2018-06-20T09:25:59.257Z,101326.00
2018-06-20T09:28:29.340Z,101323.00
2018-06-20T09:30:59.396Z,101322.00
2018-06-20T09:33:29.596Z,101321.00
2018-06-20T09:35:59.627Z,101318.00
2018-06-20T09:38:29.653Z,101315.00
2018-06-20T09:41:00.611Z,101313.00
2018-06-20T09:43:30.472Z,101323.00
2018-06-20T09:46:00.536Z,101317.00
2018-06-20T09:48:30.854Z,101306.00
2018-06-20T09:51:00.987Z,101304.00
2018-06-20T09:53:31.169Z,101312.00
2018-06-20T09:56:01.458Z,101298.00
2018-06-20T09:58:31.574Z,101300.00
2018-06-20T10:01:06.832Z,101300.00
2018-06-20T10:03:42.161Z,101298.00
2018-06-20T10:06:17.842Z,101302.00
2018-06-20T10:08:55.860Z,101299.00
2018-06-20T10:11:30.685Z,101298.00
2018-06-20T10:14:01.772Z,101299.00
2018-06-20T10:16:32.181Z,101304.00
2018-06-20T10:19:02.263Z,101301.00
2018-06-20T10:21:32.490Z,101301.00
2018-06-20T10:24:02.570Z,101298.00
2018-06-20T10:26:32.761Z,101302.00
2018-06-20T10:29:02.890Z,101293.00
2018-06-20T10:31:33.201Z,101289.00
2018-06-20T10:34:03.320Z,101287.00
2018-06-20T10:36:33.545Z,101292.00
2018-06-20T10:39:04.680Z,101290.00
2018-06-20T10:41:38.860Z,101281.00
2018-06-20T10:44:12.002Z,101270.00
2018-06-20T10:46:47.621Z,101268.00
2018-06-20T10:49:19.471Z,101269.00
2018-06-20T10:51:49.549Z,101259.00
2018-06-20T10:54:19.779Z,101267.00
2018-06-20T10:56:54.986Z,101262.00
2018-06-20T10:59:31.314Z,101261.00
2018-06-20T11:02:06.335Z,101259.00
2018-06-20T11:04:41.386Z,101255.00
2018-06-20T11:07:16.566Z,101251.00
2018-06-20T11:09:52.012Z,101242.00
2018-06-20T11:12:27.261Z,101248.00
2018-06-20T11:14:57.466Z,101240.00
2018-06-20T11:17:27.592Z,101241.00
2018-06-20T11:20:01.763Z,101238.00
2018-06-20T11:22:31.691Z,101239.00
2018-06-20T11:25:01.867Z,101236.00
2018-06-20T11:27:32.081Z,101225.00
2018-06-20T11:30:02.491Z,101230.00
2018-06-20T11:32:32.762Z,101228.00
2018-06-20T11:35:02.819Z,101225.00
2018-06-20T11:37:33.051Z,101218.00
2018-06-20T11:40:02.972Z,101208.00
2018-06-20T11:42:32.982Z,101210.00
2018-06-20T11:45:03.183Z,101205.00
2018-06-20T11:47:38.604Z,101204.00
2018-06-20T11:50:09.730Z,101200.00
2018-06-20T11:52:45.876Z,101196.00
2018-06-20T11:55:20.831Z,101189.00
2018-06-20T11:57:51.094Z,101199.00
2018-06-20T12:00:26.081Z,101182.00
2018-06-20T12:03:01.226Z,101185.00
2018-06-20T12:05:36.321Z,101178.00
2018-06-20T12:08:11.574Z,101172.00
2018-06-20T12:10:46.731Z,101179.00
2018-06-20T12:13:22.036Z,101185.00
2018-06-20T12:15:57.511Z,101172.00
2018-06-20T12:18:33.277Z,101162.00
2018-06-20T12:21:08.722Z,101167.00
2018-06-20T12:23:44.076Z,101160.00
2018-06-20T12:26:19.360Z,101160.00
2018-06-20T12:28:54.763Z,101159.00
2018-06-20T12:31:30.028Z,101156.00
2018-06-20T12:34:05.380Z,101162.00
2018-06-20T12:36:40.752Z,101151.00
2018-06-20T12:39:10.258Z,101146.00
2018-06-20T12:41:45.444Z,101153.00
2018-06-20T12:45:24.801Z,101143.00
2018-06-20T12:47:57.926Z,101148.00
2018-06-20T12:50:28.774Z,101141.00
2018-06-20T12:52:59.026Z,101136.00
2018-06-20T12:55:29.200Z,101144.00
2018-06-20T12:57:59.520Z,101137.00
2018-06-20T13:00:29.961Z,101137.00
2018-06-20T13:03:00.138Z,101131.00
2018-06-20T13:05:30.396Z,101123.00
2018-06-20T13:08:00.463Z,101126.00
2018-06-20T13:10:30.738Z,101121.00
2018-06-20T13:13:00.825Z,101123.00
2018-06-20T13:15:31.129Z,101119.00
2018-06-20T13:18:01.311Z,101115.00
2018-06-20T13:20:31.184Z,101111.00
2018-06-20T13:23:01.646Z,101111.00
2018-06-20T13:25:33.742Z,101111.00
2018-06-20T13:28:04.258Z,101109.00
2018-06-20T13:30:34.503Z,101112.00
2018-06-20T13:33:09.985Z,101101.00
2018-06-20T13:35:46.787Z,101091.00
2018-06-20T13:38:22.297Z,101099.00
2018-06-20T13:40:57.857Z,101095.00
2018-06-20T13:43:33.876Z,101093.00
2018-06-20T13:46:09.130Z,101086.00
2018-06-20T13:48:39.372Z,101090.00
2018-06-20T13:51:09.929Z,101084.00
2018-06-20T13:53:40.443Z,101086.00
2018-06-20T13:56:10.805Z,101080.00
2018-06-20T13:58:40.606Z,101078.00
2018-06-20T14:01:10.826Z,101080.00
2018-06-20T14:03:41.043Z,101084.00
2018-06-20T14:06:11.236Z,101076.00
2018-06-20T14:08:41.842Z,101068.00
2018-06-20T14:11:11.942Z,101064.00
2018-06-20T14:13:41.864Z,101072.00
2018-06-20T14:16:11.957Z,101070.00
2018-06-20T14:18:42.849Z,101068.00
2018-06-20T14:21:18.038Z,101064.00
2018-06-20T14:23:48.262Z,101061.00
2018-06-20T14:26:18.259Z,101056.00
2018-06-20T14:28:48.621Z,101062.00
2018-06-20T14:31:24.055Z,101059.00
2018-06-20T14:33:58.977Z,101052.00
2018-06-20T14:36:34.102Z,101054.00
2018-06-20T14:39:11.492Z,101059.00
2018-06-20T14:41:47.181Z,101064.00
2018-06-20T14:44:17.744Z,101059.00
2018-06-20T14:46:48.294Z,101054.00
2018-06-20T14:49:18.822Z,101058.00
2018-06-20T14:51:48.984Z,101051.00
2018-06-20T14:54:19.546Z,101053.00
2018-06-20T14:56:49.633Z,101046.00
2018-06-20T14:59:19.757Z,101062.00
2018-06-20T15:01:49.649Z,101047.00
2018-06-20T15:04:19.808Z,101048.00
2018-06-20T15:06:50.132Z,101034.00
2018-06-20T15:09:20.213Z,101038.00
2018-06-20T15:11:50.306Z,101045.00
2018-06-20T15:14:20.541Z,101039.00
2018-06-20T15:16:55.575Z,101035.00
2018-06-20T15:19:25.788Z,101029.00
2018-06-20T15:21:56.041Z,101026.00
2018-06-20T15:24:26.244Z,101024.00
2018-06-20T15:27:01.524Z,101013.00
2018-06-20T15:29:36.823Z,101015.00
2018-06-20T15:32:11.994Z,101003.00
2018-06-20T15:34:47.591Z,101008.00
2018-06-20T15:37:22.648Z,101003.00
2018-06-20T15:39:52.755Z,101001.00
2018-06-20T15:42:22.818Z,100999.00
2018-06-20T15:44:53.118Z,100992.00
2018-06-20T15:47:23.300Z,100983.00
2018-06-20T15:49:53.540Z,100988.00
2018-06-20T15:52:23.837Z,100982.00
2018-06-20T15:54:53.883Z,100976.00
2018-06-20T15:57:24.715Z,100977.00
2018-06-20T15:59:55.343Z,100982.00
2018-06-20T16:02:26.482Z,100980.00
2018-06-20T16:04:57.592Z,100981.00
2018-06-20T16:07:28.800Z,100969.00
2018-06-20T16:10:00.793Z,100968.00
2018-06-20T16:12:31.022Z,100970.00
2018-06-20T16:15:01.393Z,100969.00
2018-06-20T16:17:31.601Z,100959.00
2018-06-20T16:20:06.779Z,100961.00
2018-06-20T16:22:42.493Z,100950.00
2018-06-20T16:25:17.313Z,100947.00
2018-06-20T16:27:53.058Z,100952.00
2018-06-20T16:30:28.462Z,100946.00
2018-06-20T16:32:58.586Z,100949.00
2018-06-20T16:35:29.326Z,100952.00
2018-06-20T16:37:59.567Z,100946.00
2018-06-20T16:40:29.600Z,100939.00
2018-06-20T16:42:59.861Z,100930.00
2018-06-20T16:45:30.257Z,100927.00
2018-06-20T16:48:00.441Z,100930.00
2018-06-20T16:50:30.589Z,100923.00
2018-06-20T16:53:00.687Z,100924.00
2018-06-20T16:55:30.866Z,100922.00
2018-06-20T16:58:01.076Z,100919.00
2018-06-20T17:00:31.231Z,100915.00
2018-06-20T17:03:01.315Z,100922.00
2018-06-20T17:05:31.717Z,100923.00
2018-06-20T17:08:01.718Z,100924.00
2018-06-20T17:10:32.073Z,100921.00
2018-06-20T17:13:07.466Z,100920.00
2018-06-20T17:15:42.913Z,100918.00
2018-06-20T17:18:18.280Z,100922.00
2018-06-20T17:20:53.347Z,100925.00
2018-06-20T17:23:28.883Z,100918.00
2018-06-20T17:25:59.011Z,100917.00
2018-06-20T17:28:30.144Z,100917.00
2018-06-20T17:31:01.144Z,100909.00
2018-06-20T17:33:32.013Z,100909.00
2018-06-20T17:36:03.247Z,100906.00
2018-06-20T17:38:34.978Z,100904.00
2018-06-20T17:41:05.234Z,100904.00
2018-06-20T17:43:36.233Z,100906.00
2018-06-20T17:46:06.861Z,100901.00
2018-06-20T17:48:37.049Z,100892.00
2018-06-20T17:51:07.337Z,100894.00
2018-06-20T17:53:37.658Z,100888.00
2018-06-20T17:56:07.834Z,100886.00
2018-06-20T17:58:38.048Z,100882.00
2018-06-20T18:01:11.612Z,100888.00
2018-06-20T18:03:42.698Z,100889.00
2018-06-20T18:06:18.439Z,100884.00
2018-06-20T18:08:53.753Z,100885.00
2018-06-20T18:11:29.428Z,100880.00
2018-06-20T18:14:04.717Z,100875.00
2018-06-20T18:16:40.351Z,100878.00
2018-06-20T18:19:10.673Z,100875.00
2018-06-20T18:21:40.889Z,100874.00
2018-06-20T18:24:11.024Z,100872.00
2018-06-20T18:26:41.342Z,100872.00
2018-06-20T18:29:11.469Z,100874.00
2018-06-20T18:31:41.773Z,100868.00
2018-06-20T18:34:12.829Z,100867.00
2018-06-20T18:36:43.453Z,100862.00
2018-06-20T18:39:14.599Z,100858.00
2018-06-20T18:41:45.590Z,100857.00
2018-06-20T18:50:25.789Z,100868.00
2018-06-20T18:52:56.361Z,100867.00
2018-06-20T18:55:26.649Z,100868.00
2018-06-20T18:58:02.086Z,100871.00
2018-06-20T19:00:37.566Z,100871.00
2018-06-20T19:03:12.744Z,100868.00
2018-06-20T19:05:48.052Z,100870.00
2018-06-20T19:08:23.791Z,100870.00
2018-06-20T19:10:53.927Z,100867.00
2018-06-20T19:13:24.386Z,100872.00
2018-06-20T19:15:54.498Z,100874.00
2018-06-20T19:18:24.889Z,100872.00
2018-06-20T19:20:55.571Z,100869.00
2018-06-20T19:23:26.048Z,100872.00
2018-06-20T19:25:56.479Z,100875.00
2018-06-20T19:28:27.006Z,100874.00
2018-06-20T19:30:57.510Z,100872.00
2018-06-20T19:33:27.957Z,100874.00
2018-06-20T19:35:58.279Z,100873.00
2018-06-20T19:38:28.575Z,100874.00
2018-06-20T19:40:59.286Z,100875.00
2018-06-20T19:43:29.499Z,100877.00
2018-06-20T19:45:59.882Z,100875.00
2018-06-20T19:48:30.653Z,100879.00
2018-06-20T19:51:00.940Z,100886.00
2018-06-20T19:53:31.248Z,100888.00
2018-06-20T19:56:01.461Z,100888.00
2018-06-20T19:58:31.683Z,100886.00
2018-06-20T20:01:01.736Z,100890.00
2018-06-20T20:03:32.059Z,100890.00
2018-06-20T20:06:02.357Z,100895.00
2018-06-20T20:08:32.669Z,100888.00
2018-06-20T20:11:02.823Z,100898.00
2018-06-20T20:13:32.898Z,100899.00
2018-06-20T20:16:03.077Z,100898.00
2018-06-20T20:18:33.209Z,100897.00
2018-06-20T20:21:03.344Z,100899.00
2018-06-20T20:23:33.572Z,100901.00
2018-06-20T20:26:03.940Z,100896.00
2018-06-20T20:28:34.154Z,100896.00
2018-06-20T20:42:59.033Z,100896.00
2018-06-20T20:45:29.195Z,100897.00
2018-06-20T20:47:59.573Z,100894.00
2018-06-20T20:50:29.797Z,100895.00
2018-06-20T20:53:00.041Z,100895.00
2018-06-20T20:55:30.222Z,100894.00
2018-06-20T20:58:00.354Z,100900.00
2018-06-20T21:00:30.309Z,100901.00
2018-06-20T21:03:00.705Z,100901.00
2018-06-20T21:05:30.899Z,100896.00
2018-06-20T21:08:01.211Z,100895.00
2018-06-20T21:10:31.686Z,100896.00
2018-06-20T21:13:01.541Z,100899.00
2018-06-20T21:15:31.698Z,100895.00
2018-06-20T21:18:01.965Z,100893.00
2018-06-20T21:20:32.227Z,100893.00
2018-06-20T21:23:02.463Z,100889.00
2018-06-20T21:25:32.694Z,100887.00
2018-06-20T21:28:02.844Z,100881.00
2018-06-20T21:30:32.729Z,100877.00
2018-06-20T21:33:02.837Z,100886.00
2018-06-20T21:35:33.001Z,100878.00
2018-06-20T21:38:03.372Z,100876.00
2018-06-20T21:40:34.165Z,100878.00
2018-06-20T21:43:05.723Z,100877.00
2018-06-20T21:45:36.218Z,100872.00
2018-06-20T21:48:07.057Z,100870.00
2018-06-20T21:50:37.844Z,100874.00
2018-06-20T21:53:08.448Z,100876.00
2018-06-20T21:55:38.908Z,100876.00
2018-06-20T21:58:08.963Z,100876.00
2018-06-20T22:00:39.127Z,100872.00
2018-06-20T22:03:09.555Z,100870.00
2018-06-20T22:05:39.498Z,100867.00
2018-06-20T22:08:09.816Z,100871.00
2018-06-20T22:10:39.794Z,100868.00
2018-06-20T22:13:10.058Z,100865.00
2018-06-20T22:15:40.258Z,100863.00
2018-06-20T22:18:10.513Z,100860.00
2018-06-20T22:20:40.682Z,100854.00
2018-06-20T22:23:10.833Z,100850.00
2018-06-20T22:25:40.913Z,100846.00
2018-06-20T22:28:11.112Z,100845.00
2018-06-20T22:30:41.332Z,100837.00
2018-06-20T22:33:11.583Z,100837.00
2018-06-20T22:35:41.832Z,100833.00
2018-06-20T22:38:11.910Z,100833.00
2018-06-20T22:40:42.148Z,100837.00
2018-06-20T22:43:12.355Z,100833.00
2018-06-20T22:45:42.509Z,100828.00
2018-06-20T22:48:12.662Z,100823.00
2018-06-20T22:50:42.883Z,100826.00
2018-06-20T22:53:13.113Z,100826.00
2018-06-20T22:55:43.228Z,100829.00
2018-06-20T22:58:13.508Z,100818.00
2018-06-20T23:00:43.317Z,100824.00
2018-06-20T23:03:13.373Z,100825.00
2018-06-20T23:05:43.259Z,100827.00
2018-06-20T23:08:13.944Z,100832.00
2018-06-20T23:10:44.952Z,100831.00
2018-06-20T23:13:16.523Z,100833.00
2018-06-20T23:15:46.880Z,100832.00
2018-06-20T23:18:16.784Z,100829.00
2018-06-20T23:20:47.128Z,100832.00
2018-06-20T23:23:17.387Z,100837.00
2018-06-20T23:25:47.657Z,100838.00
2018-06-20T23:28:17.948Z,100836.00
2018-06-20T23:30:48.266Z,100829.00
2018-06-20T23:33:18.237Z,100830.00
2018-06-20T23:35:48.327Z,100832.00
2018-06-20T23:38:18.703Z,100833.00
2018-06-20T23:40:49.271Z,100836.00
2018-06-20T23:43:18.799Z,100832.00
2018-06-20T23:45:49.064Z,100833.00
2018-06-20T23:48:18.942Z,100834.00
2018-06-20T23:50:49.753Z,100835.00
2018-06-20T23:53:19.831Z,100831.00
2018-06-20T23:55:49.822Z,100836.00
2018-06-20T23:58:20.023Z,100832.00
